Time;durP1;ratioP1;P1;durP2;ratioP2;P2;SDS_P1;SDS_P2;PMS_P1;PMS_P2;Temp;Humidity;BMP_temperature;BMP_pressure;BME280_temperature;BME280_humidity;BME280_pressure;Samples;Min_cycle;Max_cycle;Signal;HPM_P1;HPM_P2
2023/10/10 00:01:21;;;;;;;21.77;11.88;;;;;;;;;;6213163;28;20030;-82
2023/10/10 00:04:25;;;;;;;23.50;13.20;;;;;;;;;;6223217;28;20070;-84
2023/10/10 00:07:27;;;;;;;23.88;13.20;;;;;;;;;;6210909;28;20054;-81
2023/10/10 00:10:31;;;;;;;26.27;13.05;;;;;;;;;;6211045;28;20033;-83
2023/10/10 00:13:32;;;;;;;25.30;13.43;;;;;;;;;;6195733;28;20046;-81
2023/10/10 00:16:37;;;;;;;22.45;12.80;;;;;;;;;;6213016;28;20049;-83
2023/10/10 00:19:45;;;;;;;22.50;11.63;;;;;;;;;;6211919;28;20139;-83
2023/10/10 00:22:48;;;;;;;22.55;11.38;;;;;;;;;;6218747;28;20144;-83
2023/10/10 00:25:52;;;;;;;21.30;10.00;;;;;;;;;;6196046;28;20053;-82
2023/10/10 00:28:55;;;;;;;15.43;8.82;;;;;;;;;;6205874;28;20527;-80
2023/10/10 00:32:05;;;;;;;12.67;7.97;;;;;;;;;;6212743;28;21824;-81
2023/10/10 00:35:09;;;;;;;14.02;8.60;;;;;;;;;;6213538;28;20053;-80
2023/10/10 00:38:17;;;;;;;17.33;7.53;;;;;;;;;;6210584;28;20531;-82
2023/10/10 00:41:22;;;;;;;16.77;8.40;;;;;;;;;;6227281;28;20050;-84
2023/10/10 00:44:25;;;;;;;18.10;8.50;;;;;;;;;;6207234;28;20042;-82
2023/10/10 00:47:31;;;;;;;17.33;8.35;;;;;;;;;;6197579;28;20058;-81
2023/10/10 00:50:34;;;;;;;18.00;8.38;;;;;;;;;;6212678;28;20435;-84
2023/10/10 00:53:39;;;;;;;;;;;;;;;;;;6209183;28;20133;-80
2023/10/10 00:56:44;;;;;;;14.27;8.10;;;;;;;;;;6229836;28;20406;-80
2023/10/10 00:59:48;;;;;;;15.07;8.88;;;;;;;;;;6208509;28;20096;-82
2023/10/10 01:03:03;;;;;;;16.05;8.95;;;;;;;;;;6215147;28;20042;-81
2023/10/10 01:06:13;;;;;;;18.15;9.10;;;;;;;;;;6207331;28;20069;-84
2023/10/10 01:12:19;;;;;;;15.65;8.52;;;;;;;;;;6211004;28;20046;-83
2023/10/10 01:15:34;;;;;;;15.07;8.85;;;;;;;;;;6210242;28;20121;-81
2023/10/10 01:18:51;;;;;;;16.42;8.38;;;;;;;;;;6212857;28;20042;-83
2023/10/10 01:21:57;;;;;;;16.73;8.32;;;;;;;;;;6224837;28;20054;-83
2023/10/10 01:24:59;;;;;;;15.48;9.40;;;;;;;;;;6227051;28;20053;-79
2023/10/10 01:28:13;;;;;;;16.20;8.50;;;;;;;;;;6226339;28;20045;-84
2023/10/10 01:31:17;;;;;;;15.10;8.63;;;;;;;;;;6224932;28;20044;-84
2023/10/10 01:34:43;;;;;;;14.70;8.38;;;;;;;;;;6215637;28;20103;-82
2023/10/10 01:37:54;;;;;;;18.40;9.10;;;;;;;;;;6184095;28;20046;-83
2023/10/10 01:41:14;;;;;;;15.27;8.97;;;;;;;;;;6229442;28;20045;-83
2023/10/10 01:44:22;;;;;;;17.52;9.25;;;;;;;;;;6224412;28;20041;-81
2023/10/10 01:47:27;;;;;;;22.25;9.85;;;;;;;;;;6227556;28;20618;-83
2023/10/10 01:50:31;;;;;;;18.33;9.57;;;;;;;;;;6211699;28;20065;-81
2023/10/10 01:53:40;;;;;;;15.93;9.60;;;;;;;;;;6224128;28;20074;-81
2023/10/10 01:56:44;;;;;;;17.63;9.73;;;;;;;;;;6211654;28;20044;-83
2023/10/10 01:59:47;;;;;;;19.88;9.10;;;;;;;;;;6223200;28;20041;-82
2023/10/10 02:02:50;;;;;;;17.33;9.07;;;;;;;;;;6210125;28;20420;-83
2023/10/10 02:05:55;;;;;;;18.23;9.38;;;;;;;;;;6211666;28;20045;-84
2023/10/10 02:09:10;;;;;;;19.90;9.55;;;;;;;;;;6207918;28;20056;-81
2023/10/10 02:12:15;;;;;;;14.98;8.57;;;;;;;;;;6203331;28;20420;-82
2023/10/10 02:15:26;;;;;;;16.08;8.98;;;;;;;;;;6195549;28;20042;-84
2023/10/10 02:18:44;;;;;;;16.80;8.40;;;;;;;;;;6225818;28;20049;-81
2023/10/10 02:21:48;;;;;;;16.35;9.07;;;;;;;;;;6212051;28;20049;-83
2023/10/10 02:24:58;;;;;;;16.25;9.02;;;;;;;;;;6203324;28;20496;-81
2023/10/10 02:28:04;;;;;;;16.65;8.65;;;;;;;;;;6222019;28;20054;-81
2023/10/10 02:31:06;;;;;;;16.92;9.50;;;;;;;;;;6213720;28;20497;-83
2023/10/10 02:34:10;;;;;;;17.08;8.90;;;;;;;;;;6214171;28;20037;-84
2023/10/10 02:40:31;;;;;;;17.50;9.20;;;;;;;;;;6212531;28;20049;-84
2023/10/10 02:43:33;;;;;;;20.50;9.60;;;;;;;;;;6207887;28;20093;-83
2023/10/10 02:46:40;;;;;;;18.17;9.45;;;;;;;;;;6209093;28;20061;-80
2023/10/10 02:49:44;;;;;;;18.95;9.52;;;;;;;;;;6202746;28;20038;-83
2023/10/10 02:52:46;;;;;;;19.60;9.80;;;;;;;;;;6200423;28;20042;-83
2023/10/10 02:55:51;;;;;;;16.85;8.85;;;;;;;;;;6229014;28;20046;-82
2023/10/10 02:58:54;;;;;;;16.38;8.90;;;;;;;;;;6208457;28;20393;-84
2023/10/10 03:01:57;;;;;;;16.73;9.23;;;;;;;;;;6210145;28;20042;-81
2023/10/10 03:08:15;;;;;;;18.95;9.30;;;;;;;;;;6222436;28;20045;-82
2023/10/10 03:11:35;;;;;;;19.00;9.52;;;;;;;;;;6224622;28;20060;-80
2023/10/10 03:14:43;;;;;;;20.50;10.63;;;;;;;;;;6222893;28;20181;-79
2023/10/10 03:18:04;;;;;;;19.15;10.75;;;;;;;;;;6207854;28;20076;-83
2023/10/10 03:21:12;;;;;;;22.52;10.75;;;;;;;;;;6215737;28;20886;-79
2023/10/10 03:34:35;;;;;;;20.73;9.90;;;;;;;;;;6214846;28;20080;-82
2023/10/10 03:37:41;;;;;;;23.77;11.13;;;;;;;;;;6210735;28;20054;-83
2023/10/10 05:24:35;;;;;;;46.08;12.40;;;;;;;;;;6216418;28;20045;-90
2023/10/10 05:27:41;;;;;;;40.35;12.50;;;;;;;;;;6226788;28;20330;-90
2023/10/10 05:30:44;;;;;;;34.80;12.20;;;;;;;;;;6202993;28;20048;-91
2023/10/10 05:33:47;;;;;;;29.92;13.43;;;;;;;;;;6212356;28;20037;-91
2023/10/10 05:36:49;;;;;;;30.13;12.57;;;;;;;;;;6214682;28;20128;-90
2023/10/10 05:39:56;;;;;;;34.80;11.90;;;;;;;;;;6197554;28;20189;-91
2023/10/10 05:42:57;;;;;;;38.80;12.02;;;;;;;;;;6201488;28;20091;-90
2023/10/10 05:46:01;;;;;;;28.42;13.35;;;;;;;;;;6233593;28;20053;-90
2023/10/10 05:49:05;;;;;;;36.58;13.40;;;;;;;;;;6220717;28;20065;-90
2023/10/10 05:52:07;;;;;;;37.45;11.93;;;;;;;;;;6220820;28;20124;-91
2023/10/10 05:55:12;;;;;;;29.05;12.25;;;;;;;;;;6218784;28;20042;-91
2023/10/10 05:58:15;;;;;;;30.20;11.75;;;;;;;;;;6211875;28;20048;-90
2023/10/10 06:01:17;;;;;;;26.63;11.67;;;;;;;;;;6202499;28;20049;-90
2023/10/10 06:04:19;;;;;;;29.70;12.50;;;;;;;;;;6211678;28;20459;-90
2023/10/10 06:07:21;;;;;;;31.15;12.18;;;;;;;;;;6206997;28;20048;-92
2023/10/10 06:10:28;;;;;;;27.23;13.00;;;;;;;;;;6210077;28;20033;-91
2023/10/10 06:13:30;;;;;;;39.35;15.93;;;;;;;;;;6173570;28;20471;-91
2023/10/10 06:16:32;;;;;;;38.67;14.35;;;;;;;;;;6206708;28;20516;-90
2023/10/10 06:19:34;;;;;;;29.87;12.53;;;;;;;;;;6218217;28;20045;-91
2023/10/10 06:22:41;;;;;;;30.90;13.00;;;;;;;;;;6223858;28;20041;-92
2023/10/10 06:25:45;;;;;;;31.42;12.75;;;;;;;;;;6212373;28;20056;-91
2023/10/10 06:28:53;;;;;;;30.85;12.82;;;;;;;;;;6229282;28;20124;-90
2023/10/10 06:31:56;;;;;;;30.52;12.38;;;;;;;;;;6232566;28;20057;-90
2023/10/10 06:35:25;;;;;;;29.98;12.20;;;;;;;;;;6214748;28;20072;-91
2023/10/10 06:38:26;;;;;;;35.22;12.20;;;;;;;;;;6217645;28;20490;-91
2023/10/10 06:41:35;;;;;;;36.33;12.32;;;;;;;;;;6218407;28;20045;-91
2023/10/10 06:44:39;;;;;;;31.50;11.23;;;;;;;;;;6208803;28;20050;-91
2023/10/10 06:47:44;;;;;;;27.40;11.73;;;;;;;;;;6215016;28;20156;-91
2023/10/10 06:50:49;;;;;;;32.20;12.27;;;;;;;;;;6212827;28;20495;-91
2023/10/10 06:53:54;;;;;;;28.17;11.98;;;;;;;;;;6207851;28;20081;-92
2023/10/10 07:03:30;;;;;;;36.67;13.43;;;;;;;;;;6231052;28;20546;-92
2023/10/10 07:06:33;;;;;;;28.88;11.55;;;;;;;;;;6223974;28;20052;-92
2023/10/10 07:09:37;;;;;;;29.27;11.77;;;;;;;;;;6216040;28;20037;-90
2023/10/10 07:12:39;;;;;;;37.67;12.85;;;;;;;;;;6199199;28;20053;-92
2023/10/10 07:15:42;;;;;;;33.40;12.23;;;;;;;;;;6222543;28;20064;-90
2023/10/10 07:18:44;;;;;;;39.53;12.32;;;;;;;;;;6240227;28;20052;-91
2023/10/10 07:21:47;;;;;;;46.40;12.35;;;;;;;;;;6250309;28;20088;-92
2023/10/10 07:24:55;;;;;;;40.42;12.10;;;;;;;;;;6228116;28;20045;-92
2023/10/10 07:28:00;;;;;;;26.00;11.05;;;;;;;;;;6201276;28;20046;-91
2023/10/10 07:31:02;;;;;;;29.42;11.65;;;;;;;;;;6218833;28;20045;-91
2023/10/10 07:34:15;;;;;;;30.10;12.13;;;;;;;;;;6219967;28;20557;-91
2023/10/10 07:37:17;;;;;;;27.75;12.20;;;;;;;;;;6212038;28;20049;-91
2023/10/10 07:40:20;;;;;;;25.83;11.48;;;;;;;;;;6204849;28;20048;-91
2023/10/10 07:43:27;;;;;;;25.45;10.95;;;;;;;;;;6211723;28;20089;-91
2023/10/10 07:46:35;;;;;;;23.83;10.65;;;;;;;;;;6231825;28;20077;-91
2023/10/10 07:49:40;;;;;;;25.73;10.93;;;;;;;;;;6207148;28;20519;-90
2023/10/10 07:52:42;;;;;;;24.00;10.93;;;;;;;;;;6212749;28;20415;-91
2023/10/10 07:55:54;;;;;;;23.75;10.77;;;;;;;;;;6199730;28;20057;-91
2023/10/10 07:58:57;;;;;;;20.27;10.63;;;;;;;;;;6208297;28;20060;-92
2023/10/10 08:01:59;;;;;;;20.95;11.00;;;;;;;;;;6215222;28;20052;-91
2023/10/10 08:05:01;;;;;;;22.60;11.30;;;;;;;;;;6206432;28;20049;-91
2023/10/10 08:08:13;;;;;;;20.42;10.73;;;;;;;;;;6203594;28;20070;-91
2023/10/10 08:11:25;;;;;;;22.40;12.05;;;;;;;;;;6218036;28;20041;-92
2023/10/10 08:14:31;;;;;;;21.17;10.85;;;;;;;;;;6219309;28;20052;-92
2023/10/10 08:17:35;;;;;;;19.52;10.77;;;;;;;;;;6220446;28;20128;-91
2023/10/10 08:23:47;;;;;;;19.15;11.13;;;;;;;;;;6237019;28;20384;-92
2023/10/10 08:26:51;;;;;;;22.65;12.13;;;;;;;;;;6201343;28;20385;-91
2023/10/10 08:29:53;;;;;;;21.48;11.40;;;;;;;;;;6214615;28;20098;-92
2023/10/10 08:32:56;;;;;;;22.75;12.80;;;;;;;;;;6233899;28;20362;-91
2023/10/10 08:35:59;;;;;;;19.90;11.40;;;;;;;;;;6217722;28;20053;-92
2023/10/10 08:39:35;;;;;;;20.60;11.20;;;;;;;;;;6197005;28;20053;-91
2023/10/10 08:42:35;;;;;;;18.60;10.63;;;;;;;;;;6227632;28;20419;-91
2023/10/10 08:45:39;;;;;;;20.45;11.27;;;;;;;;;;6195591;28;20402;-92
2023/10/10 08:48:42;;;;;;;20.48;11.45;;;;;;;;;;6197125;28;20057;-91
2023/10/10 08:51:45;;;;;;;19.98;11.55;;;;;;;;;;6209736;28;20423;-91
2023/10/10 08:54:47;;;;;;;20.77;12.13;;;;;;;;;;6215448;28;20371;-91
2023/10/10 08:57:51;;;;;;;30.52;17.05;;;;;;;;;;6222953;28;20507;-92
2023/10/10 09:00:53;;;;;;;28.75;15.23;;;;;;;;;;6221404;28;20041;-92
2023/10/10 09:03:57;;;;;;;22.75;13.27;;;;;;;;;;6231672;28;20049;-88
2023/10/10 09:07:08;;;;;;;29.92;16.75;;;;;;;;;;6195514;28;20103;-90
2023/10/10 09:10:13;;;;;;;21.85;12.75;;;;;;;;;;6215525;28;20054;-91
2023/10/10 09:13:19;;;;;;;26.50;14.80;;;;;;;;;;6206032;28;20053;-92
2023/10/10 09:16:41;;;;;;;19.65;12.57;;;;;;;;;;6217690;28;20045;-92
2023/10/10 09:19:48;;;;;;;21.57;13.20;;;;;;;;;;6231046;28;20049;-92
2023/10/10 09:23:04;;;;;;;22.50;13.00;;;;;;;;;;6216069;28;20057;-92
2023/10/10 09:26:29;;;;;;;22.50;12.00;;;;;;;;;;6219712;28;20247;-92
2023/10/10 09:29:34;;;;;;;22.83;12.73;;;;;;;;;;6229384;28;20132;-92
2023/10/10 09:32:36;;;;;;;19.77;11.43;;;;;;;;;;6222977;28;20042;-91
2023/10/10 09:35:40;;;;;;;17.40;11.00;;;;;;;;;;6203243;28;20134;-92
2023/10/10 09:38:46;;;;;;;21.08;11.73;;;;;;;;;;6209721;28;20045;-92
2023/10/10 10:01:24;;;;;;;10.30;6.30;;;;;;;;;;6216079;28;20060;-93
2023/10/10 10:04:30;;;;;;;10.80;6.80;;;;;;;;;;6219761;28;20514;-92
2023/10/10 10:07:56;;;;;;;;;;;;;;;;;;6144995;28;20112;-92
2023/10/10 10:11:11;;;;;;;9.20;5.47;;;;;;;;;;6217152;28;19979;-92
2023/10/10 10:14:22;;;;;;;9.75;4.60;;;;;;;;;;6217487;28;20042;-92
2023/10/10 10:17:53;;;;;;;7.28;4.93;;;;;;;;;;6205556;28;20507;-92
2023/10/10 10:24:15;;;;;;;7.85;4.75;;;;;;;;;;6203758;28;20054;-92
2023/10/10 10:27:28;;;;;;;8.13;4.75;;;;;;;;;;6221963;28;20052;-91
2023/10/10 10:30:46;;;;;;;10.18;4.68;;;;;;;;;;6213673;28;20507;-96
2023/10/10 10:34:23;;;;;;;9.38;4.47;;;;;;;;;;6218263;28;20046;-93
2023/10/10 10:37:28;;;;;;;9.02;4.50;;;;;;;;;;6246100;28;20041;-93
2023/10/10 10:43:51;;;;;;;7.32;4.25;;;;;;;;;;6227034;28;20121;-92
2023/10/10 10:46:57;;;;;;;9.43;5.05;;;;;;;;;;6218816;28;20049;-92
2023/10/10 10:49:58;;;;;;;7.68;4.20;;;;;;;;;;6197985;28;20041;-87
2023/10/10 10:53:08;;;;;;;7.73;4.40;;;;;;;;;;6223339;28;20053;-87
2023/10/10 10:59:21;;;;;;;9.00;4.38;;;;;;;;;;6227681;28;20128;-87
2023/10/10 11:02:30;;;;;;;8.50;4.22;;;;;;;;;;6233650;28;20644;-88
2023/10/10 11:05:32;;;;;;;7.53;4.00;;;;;;;;;;6226919;28;20052;-89
2023/10/10 11:12:08;;;;;;;18.95;4.35;;;;;;;;;;6227223;28;20053;-87
2023/10/10 11:15:11;;;;;;;9.65;4.13;;;;;;;;;;6226200;28;20049;-86
2023/10/10 11:18:13;;;;;;;8.15;3.95;;;;;;;;;;6239803;28;20037;-86
2023/10/10 11:21:27;;;;;;;8.93;4.22;;;;;;;;;;6236009;28;20061;-85
2023/10/10 11:24:31;;;;;;;9.73;4.22;;;;;;;;;;6251858;28;20054;-89
2023/10/10 11:27:43;;;;;;;6.10;3.90;;;;;;;;;;6232379;28;20060;-89
2023/10/10 11:30:45;;;;;;;9.07;4.25;;;;;;;;;;6239759;28;20258;-90
2023/10/10 11:33:56;;;;;;;7.33;4.23;;;;;;;;;;6214317;28;20049;-89
2023/10/10 11:37:13;;;;;;;9.88;4.05;;;;;;;;;;6204441;28;20052;-90
2023/10/10 11:40:31;;;;;;;6.13;4.10;;;;;;;;;;6209763;28;20046;-89
2023/10/10 11:43:37;;;;;;;6.28;4.03;;;;;;;;;;6236254;28;20057;-89
2023/10/10 11:46:39;;;;;;;10.40;4.22;;;;;;;;;;6224004;28;20051;-89
2023/10/10 11:49:41;;;;;;;8.52;4.15;;;;;;;;;;6217063;28;20097;-89
2023/10/10 11:52:57;;;;;;;8.85;4.65;;;;;;;;;;6221562;28;20053;-90
2023/10/10 11:56:01;;;;;;;7.60;4.10;;;;;;;;;;6217890;28;20049;-93
2023/10/10 11:59:14;;;;;;;7.70;4.25;;;;;;;;;;6201572;28;20126;-91
2023/10/10 12:02:29;;;;;;;6.72;3.67;;;;;;;;;;6223211;28;20044;-91
2023/10/10 12:08:36;;;;;;;7.20;3.63;;;;;;;;;;6228440;28;20041;-92
2023/10/10 12:11:39;;;;;;;7.95;4.18;;;;;;;;;;6236940;28;20045;-91
2023/10/10 12:14:42;;;;;;;;;;;;;;;;;;6206964;28;20524;-91
2023/10/10 12:17:44;;;;;;;12.07;4.05;;;;;;;;;;6199782;28;19921;-91
2023/10/10 12:20:46;;;;;;;6.57;3.95;;;;;;;;;;6204864;28;20042;-92
2023/10/10 12:23:54;;;;;;;6.30;3.80;;;;;;;;;;6231737;28;20056;-92
2023/10/10 12:27:01;;;;;;;6.80;3.90;;;;;;;;;;6207435;28;20056;-92
2023/10/10 12:30:04;;;;;;;6.45;3.75;;;;;;;;;;6201616;28;20049;-92
2023/10/10 12:33:08;;;;;;;6.53;3.88;;;;;;;;;;6219672;28;20117;-92
2023/10/10 12:36:10;;;;;;;13.68;4.13;;;;;;;;;;6211336;28;20037;-92
2023/10/10 12:39:15;;;;;;;10.10;4.20;;;;;;;;;;6216853;28;20050;-87
2023/10/10 12:42:17;;;;;;;8.57;4.05;;;;;;;;;;6203468;28;20484;-93
2023/10/10 12:45:21;;;;;;;8.20;4.35;;;;;;;;;;6210706;28;20083;-90
2023/10/10 12:48:23;;;;;;;6.20;3.77;;;;;;;;;;6229435;28;20049;-90
2023/10/10 12:51:25;;;;;;;9.02;3.70;;;;;;;;;;6229882;28;20042;-90
2023/10/10 12:54:34;;;;;;;11.85;4.15;;;;;;;;;;6227576;28;20503;-91
2023/10/10 12:57:37;;;;;;;6.78;4.03;;;;;;;;;;6206676;28;20049;-91
2023/10/10 13:00:40;;;;;;;6.45;3.47;;;;;;;;;;6231738;28;20056;-91
2023/10/10 13:03:47;;;;;;;9.35;4.32;;;;;;;;;;6200260;28;20045;-90
2023/10/10 13:06:51;;;;;;;6.70;3.72;;;;;;;;;;6227982;28;20176;-90
2023/10/10 13:09:55;;;;;;;7.90;3.90;;;;;;;;;;6215155;28;20176;-90
2023/10/10 13:12:57;;;;;;;7.70;3.97;;;;;;;;;;6200872;28;20148;-91
2023/10/10 13:16:21;;;;;;;8.15;3.53;;;;;;;;;;6198429;28;20053;-90
2023/10/10 13:19:24;;;;;;;8.15;4.10;;;;;;;;;;6188987;28;20530;-89
2023/10/10 13:22:29;;;;;;;7.43;3.58;;;;;;;;;;6218909;28;20099;-90
2023/10/10 13:25:37;;;;;;;8.43;3.75;;;;;;;;;;6185206;28;20053;-89
2023/10/10 13:28:44;;;;;;;7.63;3.38;;;;;;;;;;6192615;28;20132;-89
2023/10/10 13:31:46;;;;;;;4.68;3.22;;;;;;;;;;6165978;28;20076;-90
2023/10/10 13:34:50;;;;;;;6.97;3.30;;;;;;;;;;6200845;28;20289;-90
2023/10/10 13:38:00;;;;;;;7.80;3.53;;;;;;;;;;6184170;28;20060;-90
2023/10/10 13:41:03;;;;;;;7.68;3.72;;;;;;;;;;6189657;28;20089;-91
2023/10/10 13:44:10;;;;;;;9.55;3.65;;;;;;;;;;6186775;28;20187;-90
2023/10/10 13:47:16;;;;;;;5.45;3.63;;;;;;;;;;6219663;28;20517;-91
2023/10/10 13:50:42;;;;;;;6.78;3.33;;;;;;;;;;6197812;28;20045;-91
2023/10/10 13:53:58;;;;;;;6.60;3.70;;;;;;;;;;6217552;28;20419;-91
2023/10/10 13:57:00;;;;;;;5.10;2.97;;;;;;;;;;6225071;28;20065;-92
2023/10/10 14:00:18;;;;;;;5.63;3.60;;;;;;;;;;6213621;28;20120;-91
2023/10/10 14:03:28;;;;;;;6.43;3.10;;;;;;;;;;6216676;28;20049;-90
2023/10/10 14:06:45;;;;;;;6.93;3.35;;;;;;;;;;6212142;28;20041;-91
2023/10/10 14:09:49;;;;;;;10.02;3.20;;;;;;;;;;6192448;28;20423;-89
2023/10/10 14:13:18;;;;;;;7.97;3.78;;;;;;;;;;6206839;28;20566;-91
2023/10/10 14:16:22;;;;;;;11.45;3.85;;;;;;;;;;6192776;28;20488;-91
2023/10/10 14:19:24;;;;;;;7.03;3.05;;;;;;;;;;6209287;28;20354;-92
2023/10/10 14:22:26;;;;;;;7.95;3.88;;;;;;;;;;6208650;28;20055;-90
2023/10/10 14:25:38;;;;;;;8.50;3.03;;;;;;;;;;6226164;28;20132;-91
2023/10/10 14:28:41;;;;;;;8.67;3.23;;;;;;;;;;6195645;28;20105;-91
2023/10/10 14:31:44;;;;;;;6.70;3.00;;;;;;;;;;6213587;28;20428;-90
2023/10/10 14:34:47;;;;;;;7.28;3.22;;;;;;;;;;6211457;28;20052;-90
2023/10/10 14:37:50;;;;;;;7.00;3.30;;;;;;;;;;6214327;28;20041;-90
2023/10/10 14:41:02;;;;;;;7.03;3.28;;;;;;;;;;6207224;28;20511;-91
2023/10/10 14:44:06;;;;;;;8.20;3.73;;;;;;;;;;6209514;28;20045;-91
2023/10/10 14:47:09;;;;;;;6.53;2.85;;;;;;;;;;6211054;28;20137;-90
2023/10/10 14:50:12;;;;;;;7.03;3.55;;;;;;;;;;6227803;28;20418;-90
2023/10/10 14:53:15;;;;;;;5.97;3.15;;;;;;;;;;6207354;28;20048;-91
2023/10/10 14:56:24;;;;;;;7.82;2.97;;;;;;;;;;6216346;28;20176;-92
2023/10/10 14:59:31;;;;;;;7.72;3.45;;;;;;;;;;6226074;28;20064;-91
2023/10/10 15:02:35;;;;;;;5.53;3.17;;;;;;;;;;6209448;28;20427;-92
2023/10/10 15:05:46;;;;;;;5.30;3.08;;;;;;;;;;6206034;28;20042;-92
2023/10/10 15:08:48;;;;;;;6.40;2.95;;;;;;;;;;6213387;28;20642;-91
2023/10/10 15:11:52;;;;;;;5.40;3.10;;;;;;;;;;6208764;28;20183;-92
2023/10/10 15:14:57;;;;;;;6.55;3.10;;;;;;;;;;6212627;28;20558;-90
2023/10/10 15:17:59;;;;;;;7.35;3.08;;;;;;;;;;6213857;28;20072;-91
2023/10/10 15:21:00;;;;;;;7.80;3.20;;;;;;;;;;6197477;28;20048;-91
2023/10/10 15:24:04;;;;;;;6.53;3.13;;;;;;;;;;6220649;28;20499;-90
2023/10/10 15:27:06;;;;;;;6.68;3.13;;;;;;;;;;6237897;28;20042;-90
2023/10/10 15:30:08;;;;;;;5.40;3.00;;;;;;;;;;6238206;28;20052;-91
2023/10/10 15:33:17;;;;;;;9.82;3.67;;;;;;;;;;6232228;28;20050;-90
2023/10/10 15:36:19;;;;;;;5.55;3.53;;;;;;;;;;6217027;28;20045;-89
2023/10/10 15:39:22;;;;;;;12.83;3.17;;;;;;;;;;6228818;28;20132;-89
2023/10/10 15:42:24;;;;;;;5.47;3.40;;;;;;;;;;6226976;28;20042;-89
2023/10/10 15:45:25;;;;;;;7.77;3.23;;;;;;;;;;6223780;28;20052;-91
2023/10/10 15:48:27;;;;;;;6.60;3.30;;;;;;;;;;6216284;28;20507;-90
2023/10/10 15:51:38;;;;;;;5.13;3.05;;;;;;;;;;6216094;28;20954;-91
2023/10/10 15:54:39;;;;;;;6.90;3.42;;;;;;;;;;6213376;28;20114;-90
2023/10/10 15:57:41;;;;;;;6.32;3.38;;;;;;;;;;6236515;28;20029;-89
2023/10/10 16:00:43;;;;;;;5.40;3.20;;;;;;;;;;6256570;28;20080;-91
2023/10/10 16:03:47;;;;;;;6.82;3.42;;;;;;;;;;6242636;28;20057;-90
2023/10/10 16:06:50;;;;;;;8.55;3.53;;;;;;;;;;6197152;28;20052;-90
2023/10/10 16:09:52;;;;;;;7.25;3.30;;;;;;;;;;6217853;28;20045;-91
2023/10/10 16:12:55;;;;;;;7.23;3.50;;;;;;;;;;6209730;28;20049;-91
2023/10/10 16:15:57;;;;;;;6.85;3.00;;;;;;;;;;6201503;28;20496;-90
2023/10/10 16:18:59;;;;;;;7.43;3.53;;;;;;;;;;6231437;28;20076;-91
2023/10/10 16:22:05;;;;;;;9.20;3.72;;;;;;;;;;6204746;28;20185;-90
2023/10/10 16:25:13;;;;;;;9.20;5.50;;;;;;;;;;6217644;28;20068;-91
2023/10/10 16:28:15;;;;;;;7.78;4.00;;;;;;;;;;6234435;28;20052;-90
2023/10/10 16:31:17;;;;;;;8.80;3.65;;;;;;;;;;6218937;28;20389;-90
2023/10/10 16:34:19;;;;;;;9.43;5.03;;;;;;;;;;6214411;28;20108;-90
2023/10/10 16:37:23;;;;;;;8.60;4.25;;;;;;;;;;6204422;28;20052;-90
2023/10/10 16:40:29;;;;;;;13.85;8.00;;;;;;;;;;6221034;28;20049;-89
2023/10/10 16:43:34;;;;;;;44.28;25.23;;;;;;;;;;6222182;28;20514;-89
2023/10/10 16:46:52;;;;;;;35.72;22.90;;;;;;;;;;6216911;28;20396;-90
2023/10/10 16:49:55;;;;;;;9.65;5.57;;;;;;;;;;6235565;28;20044;-91
2023/10/10 16:52:57;;;;;;;19.98;12.48;;;;;;;;;;6206665;28;20058;-90
2023/10/10 16:56:15;;;;;;;8.98;3.50;;;;;;;;;;6201665;28;20136;-89
2023/10/10 16:59:17;;;;;;;8.00;3.22;;;;;;;;;;6218489;28;20132;-90
2023/10/10 17:02:19;;;;;;;7.03;3.78;;;;;;;;;;6204728;28;20180;-90
2023/10/10 17:05:23;;;;;;;7.60;4.00;;;;;;;;;;6212279;28;20415;-89
2023/10/10 17:08:25;;;;;;;8.85;3.97;;;;;;;;;;6221408;28;20097;-89
2023/10/10 17:11:29;;;;;;;8.07;3.70;;;;;;;;;;6209722;28;20072;-91
2023/10/10 17:14:34;;;;;;;7.20;3.28;;;;;;;;;;6227324;28;20042;-91
2023/10/10 17:17:36;;;;;;;7.82;3.63;;;;;;;;;;6187123;28;20061;-91
2023/10/10 17:20:38;;;;;;;9.65;3.92;;;;;;;;;;6211666;28;20159;-89
2023/10/10 17:23:40;;;;;;;6.88;3.17;;;;;;;;;;6210506;28;20061;-91
2023/10/10 17:26:43;;;;;;;7.37;3.87;;;;;;;;;;6193725;28;20108;-90
2023/10/10 17:29:46;;;;;;;6.15;3.65;;;;;;;;;;6214060;28;20556;-90
2023/10/10 17:32:48;;;;;;;5.32;3.75;;;;;;;;;;6218914;28;20049;-92
2023/10/10 17:35:52;;;;;;;6.47;3.67;;;;;;;;;;6195924;28;20045;-90
2023/10/10 17:38:54;;;;;;;4.78;3.17;;;;;;;;;;6230289;28;20519;-91
2023/10/10 17:42:11;;;;;;;;;;;;;;;;;;;;;
2023/10/10 17:45:13;;;;;;;6.22;3.50;;;;;;;;;;6232386;28;20049;-90
2023/10/10 17:48:17;;;;;;;7.20;3.22;;;;;;;;;;6231100;28;20044;-91
2023/10/10 17:51:23;;;;;;;11.10;3.53;;;;;;;;;;6206614;28;20052;-91
2023/10/10 17:54:28;;;;;;;9.15;3.63;;;;;;;;;;6205249;28;20053;-92
2023/10/10 17:57:31;;;;;;;8.77;5.00;;;;;;;;;;6198371;28;20132;-91
2023/10/10 18:00:37;;;;;;;9.63;4.50;;;;;;;;;;6228367;28;20507;-90
2023/10/10 18:03:39;;;;;;;6.63;3.80;;;;;;;;;;6212321;28;20344;-90
2023/10/10 18:06:42;;;;;;;8.10;4.72;;;;;;;;;;6198684;28;20050;-89
2023/10/10 18:09:54;;;;;;;8.05;4.63;;;;;;;;;;6195446;28;20996;-93
2023/10/10 18:13:04;;;;;;;6.97;3.90;;;;;;;;;;6137445;28;20045;-90
2023/10/10 18:16:12;;;;;;;9.93;3.70;;;;;;;;;;6175171;28;20048;-90
2023/10/10 18:19:28;;;;;;;9.00;3.90;;;;;;;;;;6196245;28;20037;-90
2023/10/10 18:22:44;;;;;;;7.80;4.15;;;;;;;;;;6171790;28;20550;-91
2023/10/10 18:25:53;;;;;;;10.98;5.47;;;;;;;;;;6191474;28;22453;-91
2023/10/10 18:28:56;;;;;;;8.02;4.90;;;;;;;;;;6184323;28;20138;-91
2023/10/10 18:32:01;;;;;;;10.10;5.03;;;;;;;;;;6198861;28;20534;-91
2023/10/10 18:35:16;;;;;;;8.38;4.80;;;;;;;;;;6155703;28;20045;-91
2023/10/10 18:38:21;;;;;;;9.23;4.70;;;;;;;;;;6185021;28;21338;-91
2023/10/10 18:41:26;;;;;;;5.60;4.18;;;;;;;;;;6185725;28;20044;-90
2023/10/10 18:44:32;;;;;;;11.75;4.75;;;;;;;;;;6146511;28;20089;-89
2023/10/10 18:47:35;;;;;;;9.13;5.28;;;;;;;;;;6191530;28;20147;-90
2023/10/10 18:50:40;;;;;;;11.05;5.13;;;;;;;;;;6218419;28;20144;-90
2023/10/10 18:53:47;;;;;;;7.40;4.57;;;;;;;;;;6217734;28;20107;-89
2023/10/10 18:56:54;;;;;;;9.68;5.50;;;;;;;;;;6198130;28;20046;-91
2023/10/10 18:59:56;;;;;;;8.05;4.85;;;;;;;;;;6192752;28;20053;-91
2023/10/10 19:03:06;;;;;;;;;;;;;;;;;;6199334;28;20635;-91
2023/10/10 19:06:13;;;;;;;7.93;4.82;;;;;;;;;;6185133;28;19925;-90
2023/10/10 19:09:17;;;;;;;10.15;4.68;;;;;;;;;;6215837;28;20439;-91
2023/10/10 19:12:29;;;;;;;8.27;5.10;;;;;;;;;;6183093;28;20084;-90
2023/10/10 19:15:37;;;;;;;10.77;4.57;;;;;;;;;;6200284;28;20051;-90
2023/10/10 19:18:49;;;;;;;10.48;4.82;;;;;;;;;;6195790;28;20549;-92
2023/10/10 19:22:04;;;;;;;10.82;4.45;;;;;;;;;;6165807;28;20050;-91
2023/10/10 19:25:11;;;;;;;11.85;4.93;;;;;;;;;;6182824;28;20418;-91
2023/10/10 19:28:16;;;;;;;8.52;4.35;;;;;;;;;;6160011;28;20048;-89
2023/10/10 19:31:24;;;;;;;7.35;4.43;;;;;;;;;;6177634;28;20045;-92
2023/10/10 19:34:29;;;;;;;9.75;4.70;;;;;;;;;;6202580;28;20049;-89
2023/10/10 19:37:33;;;;;;;7.60;4.50;;;;;;;;;;6158244;28;20048;-91
2023/10/10 19:40:36;;;;;;;10.45;4.75;;;;;;;;;;6186699;28;20048;-90
2023/10/10 19:43:41;;;;;;;13.40;6.07;;;;;;;;;;6170307;28;20050;-90
2023/10/10 19:47:06;;;;;;;11.02;5.13;;;;;;;;;;6202375;28;20543;-91
2023/10/10 19:50:21;;;;;;;7.75;4.65;;;;;;;;;;6193686;28;20046;-91
2023/10/10 19:53:28;;;;;;;11.68;5.35;;;;;;;;;;6213844;28;20045;-91
2023/10/10 20:00:22;;;;;;;10.55;4.63;;;;;;;;;;6146951;28;20420;-92
2023/10/10 20:03:27;;;;;;;8.27;4.45;;;;;;;;;;6196452;28;20048;-92
2023/10/10 20:06:34;;;;;;;8.32;4.30;;;;;;;;;;6174836;28;20058;-91
2023/10/10 20:09:43;;;;;;;8.15;4.22;;;;;;;;;;6208417;28;20585;-92
2023/10/10 20:13:05;;;;;;;8.05;4.20;;;;;;;;;;6158984;28;20044;-92
2023/10/10 20:16:14;;;;;;;10.02;4.72;;;;;;;;;;6208973;28;20045;-92
2023/10/10 20:19:28;;;;;;;11.40;4.72;;;;;;;;;;6198636;28;20049;-91
2023/10/10 20:22:45;;;;;;;12.85;4.88;;;;;;;;;;6197976;28;20184;-92
2023/10/10 20:25:52;;;;;;;9.18;5.25;;;;;;;;;;6199608;28;20037;-92
2023/10/10 20:28:57;;;;;;;12.02;6.40;;;;;;;;;;6196052;28;20048;-92
2023/10/10 20:32:00;;;;;;;10.35;5.82;;;;;;;;;;6196001;28;20493;-92
2023/10/10 20:35:11;;;;;;;7.75;5.40;;;;;;;;;;6217707;28;20045;-91
2023/10/10 20:38:18;;;;;;;10.85;5.57;;;;;;;;;;6185349;28;20151;-91
2023/10/10 20:41:28;;;;;;;8.13;5.70;;;;;;;;;;6169137;28;20098;-92
2023/10/10 20:44:35;;;;;;;9.32;4.90;;;;;;;;;;6165950;28;20049;-91
2023/10/10 20:47:52;;;;;;;11.52;6.80;;;;;;;;;;6161201;28;20042;-92
2023/10/10 20:51:03;;;;;;;9.48;5.40;;;;;;;;;;6141583;28;20054;-92
2023/10/10 20:54:08;;;;;;;9.40;4.38;;;;;;;;;;6174863;28;20557;-92
2023/10/10 20:57:19;;;;;;;8.35;4.47;;;;;;;;;;6152952;28;20041;-90
2023/10/10 21:00:29;;;;;;;10.43;6.05;;;;;;;;;;6214825;28;20045;-91
2023/10/10 21:03:37;;;;;;;10.32;6.22;;;;;;;;;;6193557;28;20037;-91
2023/10/10 21:06:49;;;;;;;11.73;7.35;;;;;;;;;;6184681;28;20415;-91
2023/10/10 21:09:59;;;;;;;12.10;7.68;;;;;;;;;;6198316;28;20037;-91
2023/10/10 21:13:04;;;;;;;8.75;5.40;;;;;;;;;;6189923;28;20053;-92
2023/10/10 21:16:14;;;;;;;13.75;5.68;;;;;;;;;;6203968;28;20048;-92
2023/10/10 21:19:30;;;;;;;11.13;5.97;;;;;;;;;;6195359;28;20061;-92
2023/10/10 21:22:41;;;;;;;13.65;5.85;;;;;;;;;;6214536;23;20051;-79